Time;durP1;ratioP1;P1;durP2;ratioP2;P2;SDS_P1;SDS_P2;PMS_P1;PMS_P2;Temp;Humidity;BMP_temperature;BMP_pressure;BME280_temperature;BME280_humidity;BME280_pressure;Samples;Min_cycle;Max_cycle;Signal;HPM_P1;HPM_P2
2023/10/24 00:00:17;;;;;;;4.93;3.83;;;;;;;;;;5056257;27;88521;-58
2023/10/24 00:02:46;;;;;;;7.20;3.40;;;;;;;;;;5060675;27;90094;-58
2023/10/24 00:05:14;;;;;;;3.70;2.87;;;;;;;;;;5058336;27;89887;-57
2023/10/24 00:07:43;;;;;;;4.10;2.67;;;;;;;;;;5046216;27;87899;-58
2023/10/24 00:10:13;;;;;;;3.60;2.90;;;;;;;;;;5060223;27;88607;-58
2023/10/24 00:12:41;;;;;;;3.80;2.60;;;;;;;;;;5046003;27;89135;-58
2023/10/24 00:15:10;;;;;;;2.90;2.57;;;;;;;;;;5054670;27;88916;-58
2023/10/24 00:17:38;;;;;;;5.73;2.73;;;;;;;;;;5048587;27;87752;-57
2023/10/24 00:20:07;;;;;;;5.23;3.03;;;;;;;;;;5048076;27;89878;-58
2023/10/24 00:22:35;;;;;;;6.17;2.97;;;;;;;;;;5054714;27;87982;-58
2023/10/24 00:25:05;;;;;;;5.63;3.13;;;;;;;;;;5059512;27;87923;-58
2023/10/24 00:27:34;;;;;;;2.90;2.20;;;;;;;;;;5054058;27;87749;-58
2023/10/24 00:30:03;;;;;;;3.70;3.17;;;;;;;;;;5049424;27;88455;-57
2023/10/24 00:32:31;;;;;;;4.20;3.07;;;;;;;;;;5053782;27;89917;-57
2023/10/24 00:35:00;;;;;;;3.17;2.83;;;;;;;;;;5059212;27;89820;-57
2023/10/24 00:37:28;;;;;;;3.53;2.53;;;;;;;;;;5049525;27;87663;-57
2023/10/24 00:39:57;;;;;;;3.53;2.47;;;;;;;;;;5059140;27;89716;-57
2023/10/24 00:42:25;;;;;;;4.70;3.10;;;;;;;;;;5052703;27;89111;-58
2023/10/24 00:44:55;;;;;;;6.80;3.00;;;;;;;;;;5057802;27;87773;-58
2023/10/24 00:47:23;;;;;;;2.90;2.30;;;;;;;;;;5054268;27;87665;-58
2023/10/24 00:49:52;;;;;;;4.07;2.70;;;;;;;;;;5042986;27;89699;-57
2023/10/24 00:52:20;;;;;;;4.67;2.70;;;;;;;;;;5045886;27;88847;-57
2023/10/24 00:54:49;;;;;;;6.33;3.57;;;;;;;;;;5053337;27;88264;-57
2023/10/24 00:57:17;;;;;;;4.50;2.73;;;;;;;;;;5056744;27;87871;-58
2023/10/24 00:59:46;;;;;;;3.60;2.60;;;;;;;;;;5052801;27;89483;-57
2023/10/24 01:02:15;;;;;;;3.80;2.97;;;;;;;;;;5049116;27;88234;-58
2023/10/24 01:04:44;;;;;;;4.77;2.50;;;;;;;;;;5056184;27;87995;-57
2023/10/24 01:07:12;;;;;;;3.33;2.73;;;;;;;;;;5055324;27;88462;-58
2023/10/24 01:09:41;;;;;;;3.13;2.60;;;;;;;;;;5062141;27;89459;-58
2023/10/24 01:12:09;;;;;;;5.43;2.17;;;;;;;;;;5051424;27;88940;-58
2023/10/24 01:14:38;;;;;;;4.17;2.97;;;;;;;;;;5059415;27;89089;-58
2023/10/24 01:17:10;;;;;;;5.67;3.33;;;;;;;;;;5056696;27;87783;-58
2023/10/24 01:19:40;;;;;;;2.50;2.27;;;;;;;;;;5056857;27;89797;-57
2023/10/24 01:22:10;;;;;;;2.90;2.50;;;;;;;;;;5050879;27;90230;-58
2023/10/24 01:24:38;;;;;;;2.77;2.10;;;;;;;;;;5051550;27;90478;-57
2023/10/24 01:27:07;;;;;;;3.07;2.33;;;;;;;;;;5062844;27;87675;-57
2023/10/24 01:29:36;;;;;;;4.40;1.47;;;;;;;;;;5052895;27;88706;-57
2023/10/24 01:32:05;;;;;;;2.60;2.13;;;;;;;;;;5050708;27;88176;-56
2023/10/24 01:34:33;;;;;;;2.90;1.93;;;;;;;;;;5062714;27;87727;-57
2023/10/24 01:37:02;;;;;;;4.77;2.20;;;;;;;;;;5063029;27;87458;-57
2023/10/24 01:39:31;;;;;;;4.33;2.63;;;;;;;;;;5062815;27;89669;-57
2023/10/24 01:42:00;;;;;;;2.67;1.80;;;;;;;;;;5062423;27;89033;-57
2023/10/24 01:44:28;;;;;;;2.20;1.93;;;;;;;;;;5062595;27;87367;-57
2023/10/24 01:46:57;;;;;;;2.47;2.17;;;;;;;;;;5045838;27;88437;-57
2023/10/24 01:49:25;;;;;;;3.20;2.03;;;;;;;;;;5055891;27;88463;-57
2023/10/24 01:51:53;;;;;;;3.60;2.33;;;;;;;;;;5047681;27;88952;-57
2023/10/24 01:54:22;;;;;;;2.17;1.57;;;;;;;;;;5048476;27;88799;-57
2023/10/24 01:56:51;;;;;;;1.93;1.73;;;;;;;;;;5048872;27;87710;-57
2023/10/24 01:59:20;;;;;;;2.90;2.00;;;;;;;;;;5055594;27;89698;-57
2023/10/24 02:01:48;;;;;;;2.07;1.70;;;;;;;;;;5049593;27;89118;-57
2023/10/24 02:04:16;;;;;;;4.17;2.53;;;;;;;;;;5057364;27;88061;-57
2023/10/24 02:06:45;;;;;;;3.70;2.43;;;;;;;;;;5059664;27;87680;-57
2023/10/24 02:09:13;;;;;;;2.57;1.53;;;;;;;;;;5060182;27;88539;-57
2023/10/24 02:11:42;;;;;;;2.90;2.40;;;;;;;;;;5058907;27;88983;-57
2023/10/24 02:14:11;;;;;;;2.00;1.70;;;;;;;;;;5060018;27;89721;-57
2023/10/24 02:16:40;;;;;;;2.07;1.57;;;;;;;;;;5060601;27;87729;-57
2023/10/24 02:19:08;;;;;;;2.20;1.63;;;;;;;;;;5059244;27;89299;-57
2023/10/24 02:21:37;;;;;;;3.70;1.73;;;;;;;;;;5059276;27;89004;-57
2023/10/24 02:24:05;;;;;;;2.47;2.00;;;;;;;;;;5061315;27;88723;-57
2023/10/24 02:26:34;;;;;;;2.47;1.77;;;;;;;;;;5058526;27;88780;-57
2023/10/24 02:29:02;;;;;;;2.33;1.80;;;;;;;;;;5055535;27;89580;-56
2023/10/24 02:31:32;;;;;;;2.63;1.87;;;;;;;;;;5059777;27;88948;-57
2023/10/24 02:34:00;;;;;;;3.73;1.93;;;;;;;;;;5056156;27;89374;-57
2023/10/24 02:36:29;;;;;;;3.87;2.27;;;;;;;;;;5054980;27;88504;-57
2023/10/24 02:38:58;;;;;;;2.37;1.90;;;;;;;;;;5053574;27;88506;-57
2023/10/24 02:41:26;;;;;;;5.57;1.97;;;;;;;;;;5055798;27;89471;-57
2023/10/24 02:43:54;;;;;;;4.27;2.30;;;;;;;;;;5055018;27;88800;-57
2023/10/24 02:46:23;;;;;;;2.67;1.93;;;;;;;;;;5056976;27;89230;-57
2023/10/24 02:48:53;;;;;;;3.53;2.20;;;;;;;;;;5053823;27;88210;-57
2023/10/24 02:51:21;;;;;;;3.87;3.07;;;;;;;;;;5054197;27;87741;-58
2023/10/24 02:53:49;;;;;;;3.90;1.90;;;;;;;;;;5054376;27;90099;-58
2023/10/24 02:56:18;;;;;;;3.67;2.50;;;;;;;;;;5054652;27;87981;-57
2023/10/24 02:58:46;;;;;;;5.60;2.50;;;;;;;;;;5056958;27;88446;-57
2023/10/24 03:01:15;;;;;;;4.10;2.40;;;;;;;;;;5054123;27;88939;-57
2023/10/24 03:03:44;;;;;;;5.17;2.40;;;;;;;;;;5052978;27;88980;-57
2023/10/24 03:06:16;;;;;;;3.90;2.40;;;;;;;;;;5050066;27;87664;-58
2023/10/24 03:08:45;;;;;;;3.50;2.73;;;;;;;;;;5055287;27;89631;-57
2023/10/24 03:11:13;;;;;;;3.73;2.50;;;;;;;;;;5055320;27;90430;-57
2023/10/24 03:13:42;;;;;;;2.47;2.00;;;;;;;;;;5052808;27;89092;-57
2023/10/24 03:16:11;;;;;;;3.30;2.70;;;;;;;;;;5054721;27;87662;-57
2023/10/24 03:18:39;;;;;;;4.63;2.47;;;;;;;;;;5056778;27;88584;-57
2023/10/24 03:21:08;;;;;;;4.63;2.70;;;;;;;;;;5053584;27;88038;-57
2023/10/24 03:23:40;;;;;;;3.67;2.43;;;;;;;;;;5057760;27;87688;-57
2023/10/24 03:26:08;;;;;;;2.83;2.10;;;;;;;;;;5056999;27;88464;-57
2023/10/24 03:28:37;;;;;;;3.87;2.40;;;;;;;;;;5053112;27;88503;-57
2023/10/24 03:31:05;;;;;;;3.50;2.27;;;;;;;;;;5056369;27;88817;-57
2023/10/24 03:33:34;;;;;;;4.83;1.83;;;;;;;;;;5055248;27;88091;-57
2023/10/24 03:36:02;;;;;;;2.37;1.90;;;;;;;;;;5056584;27;88637;-61
2023/10/24 03:38:32;;;;;;;3.07;2.53;;;;;;;;;;5056111;27;88600;-58
2023/10/24 03:41:02;;;;;;;5.27;2.73;;;;;;;;;;5055580;27;88539;-57
2023/10/24 03:43:31;;;;;;;3.80;2.07;;;;;;;;;;5057098;27;87573;-57
2023/10/24 03:45:59;;;;;;;4.20;2.40;;;;;;;;;;5055564;27;87791;-57
2023/10/24 03:48:27;;;;;;;4.77;3.03;;;;;;;;;;5057316;27;89555;-57
2023/10/24 03:50:56;;;;;;;6.13;2.40;;;;;;;;;;5054043;27;88771;-57
2023/10/24 03:53:24;;;;;;;3.27;2.43;;;;;;;;;;5057473;27;89715;-57
2023/10/24 03:55:57;;;;;;;6.43;2.63;;;;;;;;;;5057792;27;87634;-57
2023/10/24 03:58:26;;;;;;;2.73;2.00;;;;;;;;;;5060911;27;89725;-57
2023/10/24 04:00:55;;;;;;;3.73;2.10;;;;;;;;;;5061075;27;89146;-57
2023/10/24 04:03:23;;;;;;;3.87;2.37;;;;;;;;;;5050577;27;88943;-57
2023/10/24 04:05:52;;;;;;;4.93;1.97;;;;;;;;;;5058599;27;87623;-58
2023/10/24 04:08:20;;;;;;;6.00;2.90;;;;;;;;;;5059001;27;89744;-57
2023/10/24 04:10:49;;;;;;;6.80;3.27;;;;;;;;;;5056047;27;89358;-57
2023/10/24 04:13:17;;;;;;;2.00;1.70;;;;;;;;;;5056573;27;88879;-57
2023/10/24 04:15:47;;;;;;;6.47;3.23;;;;;;;;;;5061275;27;90355;-57
2023/10/24 04:18:16;;;;;;;2.83;1.87;;;;;;;;;;5060955;27;89703;-57
2023/10/24 04:20:45;;;;;;;3.77;2.73;;;;;;;;;;5060057;27;88238;-57
2023/10/24 04:23:16;;;;;;;5.83;3.00;;;;;;;;;;5061474;27;88251;-57
2023/10/24 04:25:45;;;;;;;5.17;3.23;;;;;;;;;;5063589;27;87450;-57
2023/10/24 04:28:13;;;;;;;4.53;2.67;;;;;;;;;;5059989;27;89853;-57
2023/10/24 04:30:42;;;;;;;3.37;3.03;;;;;;;;;;5060802;27;89157;-57
2023/10/24 04:33:12;;;;;;;2.90;2.10;;;;;;;;;;5061989;27;88974;-57
2023/10/24 04:35:43;;;;;;;3.10;2.27;;;;;;;;;;5058882;27;87377;-57
2023/10/24 04:38:12;;;;;;;3.67;2.67;;;;;;;;;;5061178;27;89609;-57
2023/10/24 04:40:40;;;;;;;4.70;3.07;;;;;;;;;;5062443;27;90108;-57
2023/10/24 04:43:08;;;;;;;4.40;2.90;;;;;;;;;;5062595;27;88875;-57
2023/10/24 04:45:37;;;;;;;4.33;2.67;;;;;;;;;;5063280;27;87715;-57
2023/10/24 04:48:05;;;;;;;3.27;2.27;;;;;;;;;;5063103;27;88583;-57
2023/10/24 04:50:38;;;;;;;4.93;3.10;;;;;;;;;;5062236;27;89141;-57
2023/10/24 04:53:07;;;;;;;6.63;3.23;;;;;;;;;;5061471;27;87585;-57
2023/10/24 04:55:35;;;;;;;6.77;3.37;;;;;;;;;;5063124;27;87470;-57
2023/10/24 04:58:05;;;;;;;4.37;2.93;;;;;;;;;;5062831;27;88668;-57
2023/10/24 05:00:34;;;;;;;6.03;3.70;;;;;;;;;;5060510;27;89205;-57
2023/10/24 05:03:03;;;;;;;3.87;2.60;;;;;;;;;;5061344;27;88880;-57
2023/10/24 05:05:31;;;;;;;2.73;2.17;;;;;;;;;;5057822;27;88245;-57
2023/10/24 05:08:06;;;;;;;3.37;2.60;;;;;;;;;;5058498;27;88493;-57
2023/10/24 05:10:35;;;;;;;4.13;2.77;;;;;;;;;;5058937;27;88862;-57
2023/10/24 05:13:04;;;;;;;4.50;2.70;;;;;;;;;;5059503;27;87739;-57
2023/10/24 05:15:32;;;;;;;4.40;2.40;;;;;;;;;;5062283;27;87669;-57
2023/10/24 05:18:01;;;;;;;4.83;2.40;;;;;;;;;;5062278;27;88627;-57
2023/10/24 05:20:29;;;;;;;5.07;3.30;;;;;;;;;;5060461;27;89366;-57
2023/10/24 05:22:58;;;;;;;5.27;3.10;;;;;;;;;;5061050;27;88746;-57
2023/10/24 05:25:27;;;;;;;3.40;2.63;;;;;;;;;;5060730;27;87634;-57
2023/10/24 05:28:13;;;;;;;3.67;2.57;;;;;;;;;;5037085;27;89758;-57
2023/10/24 05:30:42;;;;;;;5.17;2.60;;;;;;;;;;5056607;27;90036;-57
2023/10/24 05:33:10;;;;;;;4.20;3.17;;;;;;;;;;5057549;27;89678;-57
2023/10/24 05:35:38;;;;;;;4.00;2.00;;;;;;;;;;5059883;27;88591;-57
2023/10/24 05:38:07;;;;;;;3.40;2.87;;;;;;;;;;5047256;27;89669;-57
2023/10/24 05:40:36;;;;;;;4.47;2.63;;;;;;;;;;5055414;27;89167;-58
2023/10/24 05:43:05;;;;;;;2.90;2.23;;;;;;;;;;5060027;27;87920;-57
2023/10/24 05:45:33;;;;;;;4.30;3.40;;;;;;;;;;5059341;27;87714;-57
2023/10/24 05:48:03;;;;;;;4.63;2.87;;;;;;;;;;5058253;27;89923;-57
2023/10/24 05:50:33;;;;;;;3.20;2.30;;;;;;;;;;5056310;27;88672;-57
2023/10/24 05:53:01;;;;;;;3.83;2.53;;;;;;;;;;5060488;27;87745;-57
2023/10/24 05:55:30;;;;;;;4.23;3.13;;;;;;;;;;5046402;27;88112;-57
2023/10/24 05:58:00;;;;;;;4.10;2.83;;;;;;;;;;5058230;27;88546;-57
2023/10/24 06:00:28;;;;;;;5.83;3.17;;;;;;;;;;5061415;27;89104;-57
2023/10/24 06:02:57;;;;;;;4.97;3.30;;;;;;;;;;5061482;27;88780;-57
2023/10/24 06:05:25;;;;;;;5.50;3.30;;;;;;;;;;5060984;27;87676;-57
2023/10/24 06:07:54;;;;;;;6.00;2.87;;;;;;;;;;5061478;27;88461;-57
2023/10/24 06:10:22;;;;;;;5.23;3.27;;;;;;;;;;5061057;27;89039;-57
2023/10/24 06:12:50;;;;;;;5.33;3.13;;;;;;;;;;5059788;27;88029;-57
2023/10/24 06:15:20;;;;;;;5.63;2.77;;;;;;;;;;5059722;27;87578;-57
2023/10/24 06:17:48;;;;;;;5.77;3.50;;;;;;;;;;5058635;27;89577;-58
2023/10/24 06:20:17;;;;;;;4.07;3.00;;;;;;;;;;5046288;27;88994;-57
2023/10/24 06:22:45;;;;;;;3.63;2.97;;;;;;;;;;5060616;27;89694;-57
2023/10/24 06:25:14;;;;;;;4.13;3.30;;;;;;;;;;5061643;27;87494;-57
2023/10/24 06:27:42;;;;;;;6.70;2.90;;;;;;;;;;5061770;27;89533;-57
2023/10/24 06:30:11;;;;;;;3.97;3.40;;;;;;;;;;5059109;27;89152;-58
2023/10/24 06:32:41;;;;;;;9.87;3.20;;;;;;;;;;5060971;27;88933;-58
2023/10/24 06:35:09;;;;;;;4.13;3.00;;;;;;;;;;5056091;27;88505;-58
2023/10/24 06:37:38;;;;;;;4.93;3.10;;;;;;;;;;5059265;27;89446;-57
2023/10/24 06:40:09;;;;;;;6.23;3.70;;;;;;;;;;5061231;27;89244;-57
2023/10/24 06:42:38;;;;;;;6.67;3.40;;;;;;;;;;5058255;27;88971;-57
2023/10/24 06:45:06;;;;;;;6.33;3.70;;;;;;;;;;5060717;27;89025;-58
2023/10/24 06:47:35;;;;;;;4.33;2.60;;;;;;;;;;5058321;27;89596;-57
2023/10/24 06:50:05;;;;;;;6.20;3.97;;;;;;;;;;5059475;27;87831;-56
2023/10/24 06:52:33;;;;;;;6.33;3.20;;;;;;;;;;5056678;27;88583;-60
2023/10/24 06:55:03;;;;;;;5.33;2.73;;;;;;;;;;5059640;27;87396;-56
2023/10/24 06:57:31;;;;;;;4.23;2.90;;;;;;;;;;5058881;27;89640;-56
2023/10/24 06:59:59;;;;;;;6.30;3.10;;;;;;;;;;5059542;27;89151;-56
2023/10/24 07:02:28;;;;;;;4.53;2.97;;;;;;;;;;5057008;27;87799;-57
2023/10/24 07:04:56;;;;;;;4.77;3.33;;;;;;;;;;5058290;27;87662;-61
2023/10/24 07:07:25;;;;;;;5.37;3.40;;;;;;;;;;5058167;27;89662;-59
2023/10/24 07:09:54;;;;;;;4.33;2.87;;;;;;;;;;5058744;27;89004;-55
2023/10/24 07:12:22;;;;;;;3.40;2.33;;;;;;;;;;5057921;27;89616;-54
2023/10/24 07:14:53;;;;;;;2.87;2.37;;;;;;;;;;5055764;27;88491;-53
2023/10/24 07:17:21;;;;;;;4.97;2.53;;;;;;;;;;5057127;27;89602;-54
2023/10/24 07:19:49;;;;;;;4.00;2.80;;;;;;;;;;5057322;27;89017;-53
2023/10/24 07:22:17;;;;;;;2.90;2.20;;;;;;;;;;5059757;27;88785;-53
2023/10/24 07:24:47;;;;;;;4.37;2.97;;;;;;;;;;5060219;27;87600;-53
2023/10/24 07:27:16;;;;;;;2.47;2.23;;;;;;;;;;5057105;27;89631;-53
2023/10/24 07:29:45;;;;;;;3.93;2.30;;;;;;;;;;5057767;27;89142;-53
2023/10/24 07:32:13;;;;;;;2.73;2.50;;;;;;;;;;5057601;27;88588;-53
2023/10/24 07:34:42;;;;;;;3.07;2.40;;;;;;;;;;5060327;27;87839;-53
2023/10/24 07:37:10;;;;;;;8.43;2.60;;;;;;;;;;5060308;27;89710;-53
2023/10/24 07:39:39;;;;;;;2.80;2.47;;;;;;;;;;5060483;27;89043;-53
2023/10/24 07:42:09;;;;;;;6.10;2.53;;;;;;;;;;5060116;27;88817;-53
2023/10/24 07:44:38;;;;;;;3.67;2.37;;;;;;;;;;5057818;27;87619;-53
2023/10/24 07:47:07;;;;;;;3.80;2.53;;;;;;;;;;5060454;27;90035;-53
2023/10/24 07:49:36;;;;;;;2.90;2.17;;;;;;;;;;5057196;27;89910;-53
2023/10/24 07:52:04;;;;;;;3.03;2.73;;;;;;;;;;5060147;27;87701;-53
2023/10/24 07:54:33;;;;;;;3.77;2.33;;;;;;;;;;5060104;27;87720;-53
2023/10/24 07:57:02;;;;;;;2.60;2.13;;;;;;;;;;5060022;27;89772;-53
2023/10/24 07:59:34;;;;;;;3.63;2.23;;;;;;;;;;5058409;27;90062;-53
2023/10/24 08:02:03;;;;;;;3.50;2.43;;;;;;;;;;5058911;27;89694;-54
2023/10/24 08:04:32;;;;;;;5.90;2.53;;;;;;;;;;5055791;27;88727;-53
2023/10/24 08:07:01;;;;;;;4.93;2.40;;;;;;;;;;5054235;27;89675;-53
2023/10/24 08:09:30;;;;;;;3.03;2.27;;;;;;;;;;5056465;27;89192;-53
2023/10/24 08:11:59;;;;;;;5.80;3.40;;;;;;;;;;5058902;27;87816;-53
2023/10/24 08:14:28;;;;;;;3.00;2.50;;;;;;;;;;5060062;27;87430;-53
2023/10/24 08:16:58;;;;;;;3.13;2.07;;;;;;;;;;5060209;27;88354;-53
2023/10/24 08:19:26;;;;;;;3.17;2.70;;;;;;;;;;5055623;27;89041;-53
2023/10/24 08:21:55;;;;;;;2.67;2.03;;;;;;;;;;5059184;27;87701;-53
2023/10/24 08:24:23;;;;;;;2.83;1.90;;;;;;;;;;5059659;27;87943;-53
2023/10/24 08:26:51;;;;;;;3.53;2.60;;;;;;;;;;5059498;27;88330;-53
2023/10/24 08:29:39;;;;;;;3.23;2.13;;;;;;;;;;5054128;27;88182;-53
2023/10/24 08:32:09;;;;;;;5.03;2.60;;;;;;;;;;5056500;27;88742;-53
2023/10/24 08:34:42;;;;;;;3.50;2.63;;;;;;;;;;5060263;27;87636;-53
2023/10/24 08:37:12;;;;;;;3.87;2.93;;;;;;;;;;5059130;27;89511;-54
2023/10/24 08:39:40;;;;;;;5.07;2.47;;;;;;;;;;5058615;27;88716;-54
2023/10/24 08:42:09;;;;;;;3.40;2.30;;;;;;;;;;5058815;27;88839;-53
2023/10/24 08:44:38;;;;;;;3.70;2.57;;;;;;;;;;5043657;27;87716;-54
2023/10/24 08:47:06;;;;;;;3.40;2.67;;;;;;;;;;5045923;27;89826;-53
2023/10/24 08:49:37;;;;;;;6.10;2.40;;;;;;;;;;5042832;28;90239;-53
2023/10/24 08:52:05;;;;;;;2.63;2.20;;;;;;;;;;5043320;27;89760;-54
2023/10/24 08:54:54;;;;;;;4.77;2.73;;;;;;;;;;5057675;27;87475;-54
2023/10/24 08:57:24;;;;;;;4.70;1.93;;;;;;;;;;5059905;27;88538;-54
2023/10/24 08:59:52;;;;;;;3.90;2.40;;;;;;;;;;5059547;27;89367;-53
2023/10/24 09:02:21;;;;;;;2.60;2.10;;;;;;;;;;5059555;27;87713;-53
2023/10/24 09:04:51;;;;;;;4.30;2.43;;;;;;;;;;5062864;27;87646;-53
2023/10/24 09:07:19;;;;;;;2.37;2.17;;;;;;;;;;5059637;27;89848;-54
2023/10/24 09:09:47;;;;;;;3.33;2.10;;;;;;;;;;5062236;27;89092;-53
2023/10/24 09:12:16;;;;;;;2.80;2.40;;;;;;;;;;5059760;27;88823;-53
2023/10/24 09:14:48;;;;;;;3.20;1.97;;;;;;;;;;5061308;27;87937;-54
2023/10/24 09:17:22;;;;;;;2.27;2.00;;;;;;;;;;5060748;27;89718;-54
2023/10/24 09:19:53;;;;;;;4.07;1.97;;;;;;;;;;5062915;27;87809;-53
2023/10/24 09:22:21;;;;;;;2.97;1.80;;;;;;;;;;5060477;27;87816;-53
2023/10/24 09:24:49;;;;;;;2.70;2.20;;;;;;;;;;5061506;27;87742;-53
2023/10/24 09:27:18;;;;;;;4.27;1.80;;;;;;;;;;5060268;27;89724;-54
2023/10/24 09:29:50;;;;;;;1.97;1.83;;;;;;;;;;5062228;27;87558;-54
2023/10/24 09:32:18;;;;;;;4.37;1.43;;;;;;;;;;5062692;27;88025;-54
2023/10/24 09:34:47;;;;;;;1.87;1.70;;;;;;;;;;5057436;27;87935;-53
2023/10/24 09:37:17;;;;;;;2.00;1.40;;;;;;;;;;5060126;27;88768;-53
2023/10/24 09:39:55;;;;;;;2.20;2.00;;;;;;;;;;5061960;27;89201;-54
2023/10/24 09:42:25;;;;;;;2.27;1.70;;;;;;;;;;5055734;27;88906;-53
2023/10/24 09:45:00;;;;;;;4.57;1.70;;;;;;;;;;5062985;27;87635;-54
2023/10/24 09:47:28;;;;;;;2.57;1.70;;;;;;;;;;5062869;27;88643;-54
2023/10/24 09:49:57;;;;;;;2.00;1.70;;;;;;;;;;5057320;27;87994;-61
2023/10/24 09:52:28;;;;;;;2.27;1.20;;;;;;;;;;5053711;27;87711;-65
2023/10/24 09:54:58;;;;;;;3.20;1.60;;;;;;;;;;5060128;27;87354;-54
2023/10/24 09:57:28;;;;;;;2.77;1.60;;;;;;;;;;5060731;27;88447;-54
2023/10/24 09:59:56;;;;;;;2.40;1.80;;;;;;;;;;5054926;27;89102;-53
2023/10/24 10:02:25;;;;;;;1.73;1.63;;;;;;;;;;5059227;27;89853;-55
2023/10/24 10:04:54;;;;;;;2.60;1.70;;;;;;;;;;5059586;27;87896;-55
2023/10/24 10:07:23;;;;;;;1.90;1.30;;;;;;;;;;5056081;27;87609;-54
2023/10/24 10:09:53;;;;;;;1.97;1.40;;;;;;;;;;5066524;27;89091;-56
2023/10/24 10:12:21;;;;;;;1.23;1.03;;;;;;;;;;5062690;27;88943;-53
2023/10/24 10:15:00;;;;;;;2.93;1.50;;;;;;;;;;5059244;27;87521;-55
2023/10/24 10:17:30;;;;;;;3.20;2.07;;;;;;;;;;5061089;27;89679;-52
2023/10/24 10:20:03;;;;;;;2.37;1.90;;;;;;;;;;5053096;27;88079;-56
2023/10/24 10:22:45;;;;;;;2.50;1.90;;;;;;;;;;5060974;27;87775;-55
2023/10/24 10:25:24;;;;;;;2.70;1.90;;;;;;;;;;5062371;27;88030;-53
2023/10/24 10:27:55;;;;;;;3.50;1.77;;;;;;;;;;5061913;27;87472;-53
2023/10/24 10:30:25;;;;;;;3.87;1.53;;;;;;;;;;5058921;27;88992;-53
2023/10/24 10:32:57;;;;;;;4.17;1.93;;;;;;;;;;5055425;27;88662;-54
2023/10/24 10:35:50;;;;;;;2.53;1.27;;;;;;;;;;5041766;27;87573;-53
2023/10/24 10:38:26;;;;;;;1.60;1.43;;;;;;;;;;5057530;27;89575;-53
2023/10/24 10:40:56;;;;;;;2.47;2.17;;;;;;;;;;5057166;27;88672;-53
2023/10/24 10:43:30;;;;;;;4.47;2.17;;;;;;;;;;5054702;27;87922;-54
2023/10/24 10:46:17;;;;;;;2.53;1.93;;;;;;;;;;5057293;27;87486;-53
2023/10/24 10:48:46;;;;;;;2.07;1.40;;;;;;;;;;5060011;27;89686;-54
2023/10/24 10:51:15;;;;;;;2.57;2.00;;;;;;;;;;5058048;27;89093;-54
2023/10/24 10:53:46;;;;;;;2.40;1.80;;;;;;;;;;5060287;27;88787;-54
2023/10/24 10:56:17;;;;;;;1.50;1.37;;;;;;;;;;5061033;27;87915;-53
2023/10/24 10:58:52;;;;;;;4.07;1.87;;;;;;;;;;5060754;27;89708;-53
2023/10/24 11:01:23;;;;;;;2.90;1.63;;;;;;;;;;5060359;27;88909;-53
2023/10/24 11:03:51;;;;;;;2.33;1.43;;;;;;;;;;5061062;27;88926;-53
2023/10/24 11:06:20;;;;;;;1.63;1.53;;;;;;;;;;5060760;27;87397;-53
2023/10/24 11:08:49;;;;;;;2.03;1.83;;;;;;;;;;5059852;27;89727;-53
2023/10/24 11:11:21;;;;;;;1.80;1.70;;;;;;;;;;5060755;27;88029;-53
2023/10/24 11:13:51;;;;;;;3.07;2.03;;;;;;;;;;5059177;27;87333;-53
2023/10/24 11:16:20;;;;;;;2.20;1.83;;;;;;;;;;5060985;27;87573;-53
2023/10/24 11:19:05;;;;;;;2.43;1.77;;;;;;;;;;5058169;27;89837;-53
2023/10/24 11:21:34;;;;;;;2.63;2.00;;;;;;;;;;5059940;27;89004;-53
2023/10/24 11:24:02;;;;;;;3.27;2.10;;;;;;;;;;5058522;27;89789;-53
2023/10/24 11:26:32;;;;;;;2.77;2.17;;;;;;;;;;5061041;27;87714;-53
2023/10/24 11:29:00;;;;;;;3.40;2.03;;;;;;;;;;5059937;27;89802;-53
2023/10/24 11:31:29;;;;;;;2.83;1.93;;;;;;;;;;5057407;27;88936;-53
2023/10/24 11:33:58;;;;;;;3.23;2.47;;;;;;;;;;5050767;27;88804;-64
2023/10/24 11:36:27;;;;;;;2.57;2.10;;;;;;;;;;5053095;27;87564;-53
2023/10/24 11:38:58;;;;;;;2.67;2.20;;;;;;;;;;5060408;27;88514;-53
2023/10/24 11:41:27;;;;;;;3.63;2.33;;;;;;;;;;5060104;27;88227;-53
2023/10/24 11:43:57;;;;;;;3.40;2.60;;;;;;;;;;5060541;27;87801;-53
2023/10/24 11:46:25;;;;;;;3.90;3.03;;;;;;;;;;5060465;27;87748;-53
2023/10/24 11:48:54;;;;;;;3.63;3.17;;;;;;;;;;5060629;27;89428;-53
2023/10/24 11:51:23;;;;;;;4.30;3.40;;;;;;;;;;5059332;27;88200;-53
2023/10/24 11:53:51;;;;;;;5.10;3.50;;;;;;;;;;5060647;27;87320;-53
2023/10/24 11:56:19;;;;;;;5.77;3.27;;;;;;;;;;5060579;27;87821;-53
2023/10/24 11:58:48;;;;;;;5.93;3.73;;;;;;;;;;5048989;27;89594;-53
2023/10/24 12:01:17;;;;;;;5.90;3.93;;;;;;;;;;5040348;28;89211;-53
2023/10/24 12:03:48;;;;;;;6.00;4.23;;;;;;;;;;5054662;27;87607;-53
2023/10/24 12:06:18;;;;;;;9.57;3.90;;;;;;;;;;5060832;27;87930;-53
2023/10/24 12:08:46;;;;;;;6.73;4.00;;;;;;;;;;5055516;27;88035;-55
2023/10/24 12:11:15;;;;;;;6.00;4.33;;;;;;;;;;5051289;27;90323;-53
2023/10/24 12:13:43;;;;;;;6.63;4.33;;;;;;;;;;5060411;27;89858;-53
2023/10/24 12:16:11;;;;;;;4.70;4.00;;;;;;;;;;5058993;27;87460;-56
2023/10/24 12:18:41;;;;;;;5.67;4.13;;;;;;;;;;5062609;27;89753;-54
2023/10/24 12:21:10;;;;;;;8.67;4.00;;;;;;;;;;5063724;27;88051;-53
2023/10/24 12:23:38;;;;;;;6.00;3.57;;;;;;;;;;5064155;27;87950;-55
2023/10/24 12:26:07;;;;;;;4.90;4.00;;;;;;;;;;5064232;27;87561;-53
2023/10/24 12:28:36;;;;;;;5.00;3.53;;;;;;;;;;5063703;27;89657;-55
2023/10/24 12:31:05;;;;;;;5.13;3.77;;;;;;;;;;5064167;27;88250;-55
2023/10/24 12:33:33;;;;;;;7.37;4.03;;;;;;;;;;5046313;27;88946;-55
2023/10/24 12:36:06;;;;;;;6.10;3.60;;;;;;;;;;5046701;27;88810;-53
2023/10/24 12:38:37;;;;;;;6.10;4.57;;;;;;;;;;5063392;27;88547;-55
2023/10/24 12:41:06;;;;;;;5.43;3.60;;;;;;;;;;5063806;27;88084;-55
2023/10/24 12:43:34;;;;;;;4.73;3.60;;;;;;;;;;5050407;27;87566;-55
2023/10/24 12:46:03;;;;;;;6.90;3.87;;;;;;;;;;5062870;27;87576;-55
2023/10/24 12:48:32;;;;;;;5.23;3.40;;;;;;;;;;5056948;27;89667;-55
2023/10/24 12:51:14;;;;;;;8.37;4.33;;;;;;;;;;5047362;27;88951;-55
2023/10/24 12:53:42;;;;;;;6.10;3.73;;;;;;;;;;5060509;27;87757;-55
2023/10/24 12:56:11;;;;;;;6.20;3.63;;;;;;;;;;5055579;27;87653;-55
2023/10/24 12:58:40;;;;;;;4.33;3.70;;;;;;;;;;5063296;27;89698;-55
2023/10/24 13:01:10;;;;;;;6.70;4.47;;;;;;;;;;5062554;27;90067;-55
2023/10/24 13:03:38;;;;;;;5.57;3.10;;;;;;;;;;5056299;27;90001;-55
2023/10/24 13:06:07;;;;;;;5.00;3.83;;;;;;;;;;5048818;27;87616;-55
2023/10/24 13:08:37;;;;;;;5.53;3.93;;;;;;;;;;5058412;27;87398;-55
2023/10/24 13:11:05;;;;;;;5.33;3.37;;;;;;;;;;5062976;27;88044;-55
2023/10/24 13:13:34;;;;;;;5.87;3.13;;;;;;;;;;5063325;27;89569;-55
2023/10/24 13:16:02;;;;;;;5.20;3.77;;;;;;;;;;5063099;27;87582;-55
2023/10/24 13:18:30;;;;;;;3.63;3.00;;;;;;;;;;5065012;27;88565;-55
2023/10/24 13:20:59;;;;;;;7.20;3.00;;;;;;;;;;5058318;27;88092;-55
2023/10/24 13:23:27;;;;;;;6.50;3.47;;;;;;;;;;5049147;27;88801;-55
2023/10/24 13:25:57;;;;;;;3.80;2.93;;;;;;;;;;5069691;27;88074;-55
2023/10/24 13:28:26;;;;;;;4.43;3.00;;;;;;;;;;5061324;27;89205;-56
2023/10/24 13:30:54;;;;;;;3.93;3.13;;;;;;;;;;5048689;27;89353;-55
2023/10/24 13:33:41;;;;;;;5.77;4.00;;;;;;;;;;5062450;27;88503;-55
2023/10/24 13:36:30;;;;;;;4.63;2.87;;;;;;;;;;5063118;27;87728;-55
2023/10/24 13:38:59;;;;;;;4.77;3.03;;;;;;;;;;5060718;27;88336;-55
2023/10/24 13:41:28;;;;;;;4.87;2.23;;;;;;;;;;5045236;27;89084;-55
2023/10/24 13:43:58;;;;;;;4.00;2.97;;;;;;;;;;5058849;27;87796;-55
2023/10/24 13:46:26;;;;;;;3.70;2.40;;;;;;;;;;5062876;27;87724;-55
2023/10/24 13:48:57;;;;;;;4.30;3.57;;;;;;;;;;5062550;27;89213;-55
2023/10/24 13:51:25;;;;;;;4.53;2.90;;;;;;;;;;5062550;27;89026;-55
2023/10/24 13:53:54;;;;;;;3.63;2.83;;;;;;;;;;5062940;27;88882;-55
2023/10/24 13:56:23;;;;;;;5.77;3.40;;;;;;;;;;5062944;27;87632;-55
2023/10/24 13:58:52;;;;;;;4.97;3.20;;;;;;;;;;5062706;27;89588;-55
2023/10/24 14:01:21;;;;;;;4.70;3.70;;;;;;;;;;5062450;27;87350;-55
2023/10/24 14:03:49;;;;;;;4.27;2.53;;;;;;;;;;5062743;27;87511;-55
2023/10/24 14:06:18;;;;;;;3.17;2.60;;;;;;;;;;5053728;27;87649;-55
2023/10/24 14:08:47;;;;;;;3.93;2.50;;;;;;;;;;5042358;27;87824;-55
2023/10/24 14:11:16;;;;;;;4.53;2.77;;;;;;;;;;5042089;27;89047;-55
2023/10/24 14:13:44;;;;;;;5.00;3.30;;;;;;;;;;5042112;27;88834;-53
2023/10/24 14:16:14;;;;;;;4.03;3.03;;;;;;;;;;5041677;27;87671;-54
2023/10/24 14:18:42;;;;;;;5.33;2.60;;;;;;;;;;5042035;27;88711;-53
2023/10/24 14:21:11;;;;;;;4.33;2.80;;;;;;;;;;5041965;27;88122;-53
2023/10/24 14:23:39;;;;;;;5.47;3.10;;;;;;;;;;5042022;27;88933;-55
2023/10/24 14:26:07;;;;;;;3.97;3.20;;;;;;;;;;5042068;27;87593;-53
2023/10/24 14:28:39;;;;;;;3.67;2.70;;;;;;;;;;5041647;27;88568;-53
2023/10/24 14:31:08;;;;;;;1.87;1.77;;;;;;;;;;5041517;27;89225;-54
2023/10/24 14:33:38;;;;;;;2.77;2.47;;;;;;;;;;5042126;27;88918;-53
2023/10/24 14:36:06;;;;;;;3.63;2.50;;;;;;;;;;5041909;27;87627;-53
2023/10/24 14:38:35;;;;;;;5.13;2.90;;;;;;;;;;5041609;27;88548;-53
2023/10/24 14:41:03;;;;;;;4.87;2.83;;;;;;;;;;5039080;27;90130;-54
2023/10/24 14:43:32;;;;;;;2.93;2.43;;;;;;;;;;5038198;27;89803;-53
2023/10/24 14:46:00;;;;;;;3.63;1.83;;;;;;;;;;5040897;27;88167;-53
2023/10/24 14:48:28;;;;;;;3.03;2.00;;;;;;;;;;5039621;27;89621;-53
2023/10/24 14:50:58;;;;;;;4.63;2.57;;;;;;;;;;5036681;28;89156;-53
2023/10/24 14:53:27;;;;;;;3.03;2.40;;;;;;;;;;5036510;28;88830;-54
2023/10/24 14:55:55;;;;;;;2.17;1.63;;;;;;;;;;5036549;27;87660;-53